createdAt,value
2018-04-28T00:00:55.785Z,9.42
2018-04-28T00:02:06.024Z,9.38
2018-04-28T00:03:15.893Z,9.37
2018-04-28T00:04:26.037Z,9.34
2018-04-28T00:05:35.962Z,9.23
2018-04-28T00:06:46.109Z,9.3
2018-04-28T00:07:56.324Z,9.25
2018-04-28T00:09:06.715Z,9.3
2018-04-28T00:10:17.067Z,9.33
2018-04-28T00:11:27.236Z,9.25
2018-04-28T00:12:37.129Z,9.27
2018-04-28T00:13:47.276Z,9.26
2018-04-28T00:14:57.509Z,9.25
2018-04-28T00:16:07.112Z,9.29
2018-04-28T00:17:17.279Z,9.2
2018-04-28T00:18:27.226Z,9.15
2018-04-28T00:19:37.524Z,9.09
2018-04-28T00:20:47.760Z,9.16
2018-04-28T00:21:57.556Z,9.02
2018-04-28T00:23:07.686Z,8.95
2018-04-28T00:24:17.596Z,9.05
2018-04-28T00:25:27.724Z,9.07
2018-04-28T00:26:37.857Z,9
2018-04-28T00:27:47.982Z,9
2018-04-28T00:28:58.210Z,8.97
2018-04-28T00:30:08.459Z,8.97
2018-04-28T00:31:18.335Z,8.93
2018-04-28T00:32:28.454Z,8.97
2018-04-28T00:33:38.649Z,8.92
2018-04-28T00:34:48.782Z,8.92
2018-04-28T00:35:59.005Z,8.89
2018-04-28T00:37:09.245Z,8.89
2018-04-28T00:38:19.381Z,8.92
2018-04-28T00:39:29.023Z,8.77
2018-04-28T00:40:39.163Z,8.77
2018-04-28T00:41:49.288Z,8.9
2018-04-28T00:42:59.411Z,8.79
2018-04-28T00:44:09.538Z,8.83
2018-04-28T00:45:19.757Z,8.77
2018-04-28T00:46:29.680Z,8.84
2018-04-28T00:47:39.462Z,8.68
2018-04-28T00:48:49.597Z,8.83
2018-04-28T00:49:59.476Z,8.9
2018-04-28T00:51:09.643Z,8.8
2018-04-28T00:52:19.993Z,8.71
2018-04-28T00:53:30.109Z,8.77
2018-04-28T00:54:40.272Z,8.84
2018-04-28T00:55:50.403Z,8.74
2018-04-28T00:57:00.267Z,8.74
2018-04-28T00:58:10.472Z,8.7
2018-04-28T00:59:20.614Z,8.71
2018-04-28T01:00:30.755Z,8.71
2018-04-28T01:01:40.973Z,8.7
2018-04-28T01:02:50.885Z,8.77
2018-04-28T01:04:01.034Z,8.67
2018-04-28T01:05:11.204Z,8.71
2018-04-28T01:06:21.409Z,8.63
2018-04-28T01:07:31.612Z,8.63
2018-04-28T01:08:41.883Z,8.5
2018-04-28T01:09:52.091Z,8.58
2018-04-28T01:11:02.355Z,8.52
2018-04-28T01:12:12.217Z,8.49
2018-04-28T01:13:22.325Z,8.52
2018-04-28T01:14:32.205Z,8.55
2018-04-28T01:15:42.425Z,8.52
2018-04-28T01:16:52.598Z,8.5
2018-04-28T01:18:02.747Z,8.61
2018-04-28T01:19:12.863Z,8.58
2018-04-28T01:20:24.063Z,8.57
2018-04-28T01:21:34.228Z,8.57
2018-04-28T01:22:44.487Z,8.57
2018-04-28T01:23:54.641Z,8.52
2018-04-28T01:25:04.823Z,8.5
2018-04-28T01:26:14.641Z,8.52
2018-04-28T01:27:24.620Z,8.48
2018-04-28T01:28:34.741Z,8.57
2018-04-28T01:29:44.889Z,8.45
2018-04-28T01:30:54.754Z,8.45
2018-04-28T01:32:04.950Z,8.43
2018-04-28T01:33:14.818Z,8.43
2018-04-28T01:34:24.934Z,8.34
2018-04-28T01:35:35.054Z,8.4
2018-04-28T01:36:45.257Z,8.45
2018-04-28T01:37:55.454Z,8.34
2018-04-28T01:39:05.767Z,8.4
2018-04-28T01:40:15.908Z,8.4
2018-04-28T01:41:26.096Z,8.45
2018-04-28T01:42:35.722Z,8.48
2018-04-28T01:43:45.626Z,8.5
2018-04-28T01:44:55.840Z,8.55
2018-04-28T01:46:06.026Z,8.5
2018-04-28T01:47:16.299Z,8.5
2018-04-28T01:48:26.447Z,8.43
2018-04-28T01:49:37.733Z,8.43
2018-04-28T01:50:47.936Z,8.5
2018-04-28T01:51:58.216Z,8.64
2018-04-28T01:53:08.367Z,8.53
2018-04-28T01:54:18.591Z,8.67
2018-04-28T01:55:28.813Z,8.53
2018-04-28T01:56:38.958Z,8.66
2018-04-28T01:57:49.266Z,8.58
2018-04-28T01:58:59.428Z,8.5
2018-04-28T02:00:09.696Z,8.5
2018-04-28T02:01:19.673Z,8.53
2018-04-28T02:02:29.809Z,8.61
2018-04-28T02:03:39.678Z,8.6
2018-04-28T02:04:49.882Z,8.57
2018-04-28T02:05:59.745Z,8.74
2018-04-28T02:07:10.056Z,8.68
2018-04-28T02:08:20.226Z,8.67
2018-04-28T02:09:30.432Z,8.61
2018-04-28T02:10:40.720Z,8.7
2018-04-28T02:11:50.872Z,8.63
2018-04-28T02:13:01.046Z,8.6
2018-04-28T02:14:11.173Z,8.64
2018-04-28T02:15:21.292Z,8.53
2018-04-28T02:16:31.422Z,8.55
2018-04-28T02:17:41.557Z,8.57
2018-04-28T02:18:51.675Z,8.5
2018-04-28T02:20:01.783Z,8.49
2018-04-28T02:21:11.915Z,8.5
2018-04-28T02:22:21.786Z,8.46
2018-04-28T02:23:31.924Z,8.57
2018-04-28T02:24:42.054Z,8.5
2018-04-28T02:25:52.201Z,8.5
2018-04-28T02:27:02.334Z,8.52
2018-04-28T02:28:12.470Z,8.58
2018-04-28T02:29:22.257Z,8.57
2018-04-28T02:30:32.554Z,8.53
2018-04-28T02:31:42.758Z,8.58
2018-04-28T02:32:53.003Z,8.6
2018-04-28T02:34:02.883Z,8.63
2018-04-28T02:35:13.068Z,8.6
2018-04-28T02:36:23.069Z,8.63
2018-04-28T02:37:33.235Z,8.63
2018-04-28T02:38:43.372Z,8.67
2018-04-28T02:39:53.441Z,8.68
2018-04-28T02:41:03.586Z,8.64
2018-04-28T02:42:13.461Z,8.6
2018-04-28T02:43:23.599Z,8.71
2018-04-28T02:44:33.499Z,8.71
2018-04-28T02:45:43.646Z,8.82
2018-04-28T02:46:53.791Z,8.83
2018-04-28T02:48:03.948Z,8.77
2018-04-28T02:49:14.139Z,8.87
2018-04-28T02:50:24.364Z,8.92
2018-04-28T02:51:34.279Z,8.93
2018-04-28T02:52:44.395Z,8.92
2018-04-28T02:53:54.535Z,8.95
2018-04-28T02:55:04.685Z,8.93
2018-04-28T02:56:14.972Z,8.92
2018-04-28T02:57:25.153Z,8.93
2018-04-28T02:58:35.378Z,8.89
2018-04-28T02:59:45.496Z,8.87
2018-04-28T03:00:55.684Z,8.82
2018-04-28T03:02:05.824Z,8.79
2018-04-28T03:03:15.953Z,8.75
2018-04-28T03:04:26.110Z,8.89
2018-04-28T03:05:36.325Z,8.82
2018-04-28T03:06:46.550Z,8.77
2018-04-28T03:07:56.733Z,8.8
2018-04-28T03:09:06.961Z,8.93
2018-04-28T03:10:17.119Z,8.9
2018-04-28T03:11:27.279Z,8.92
2018-04-28T03:12:37.484Z,8.9
2018-04-28T03:13:47.348Z,8.86
2018-04-28T03:14:57.509Z,8.82
2018-04-28T03:16:07.651Z,8.83
2018-04-28T03:17:17.576Z,8.8
2018-04-28T03:18:27.718Z,8.84
2018-04-28T03:19:37.937Z,8.74
2018-04-28T03:20:48.226Z,8.74
2018-04-28T03:21:58.436Z,8.74
2018-04-28T03:23:08.666Z,8.71
2018-04-28T03:24:18.929Z,8.75
2018-04-28T03:25:28.602Z,8.64
2018-04-28T03:26:38.433Z,8.63
2018-04-28T03:27:48.566Z,8.6
2018-04-28T03:28:58.740Z,8.66
2018-04-28T03:30:09.001Z,8.61
2018-04-28T03:31:19.206Z,8.64
2018-04-28T03:32:29.387Z,8.63
2018-04-28T03:33:39.560Z,8.66
2018-04-28T03:34:49.698Z,8.71
2018-04-28T03:35:59.794Z,8.66
2018-04-28T03:37:09.919Z,8.68
2018-04-28T03:38:20.037Z,8.75
2018-04-28T03:39:30.155Z,8.75
2018-04-28T03:40:40.389Z,8.66
2018-04-28T03:41:50.522Z,8.66
2018-04-28T03:43:00.664Z,8.71
2018-04-28T03:44:10.313Z,8.7
2018-04-28T03:45:20.432Z,8.6
2018-04-28T03:46:30.605Z,8.61
2018-04-28T03:47:40.474Z,8.63
2018-04-28T03:48:50.606Z,8.58
2018-04-28T03:50:00.542Z,8.57
2018-04-28T03:51:10.690Z,8.49
2018-04-28T03:52:20.555Z,8.61
2018-04-28T03:53:30.876Z,8.6
2018-04-28T03:54:41.136Z,8.58
2018-04-28T03:55:51.385Z,8.49
2018-04-28T03:57:01.287Z,8.57
2018-04-28T03:58:11.173Z,8.49
2018-04-28T03:59:21.321Z,8.5
2018-04-28T04:00:31.462Z,8.61
2018-04-28T04:01:41.595Z,8.46
2018-04-28T04:02:51.721Z,8.53
2018-04-28T04:04:01.900Z,8.53
2018-04-28T04:05:12.045Z,8.53
2018-04-28T04:06:21.810Z,8.42
2018-04-28T04:07:31.976Z,8.39
2018-04-28T04:08:42.118Z,8.35
2018-04-28T04:09:52.316Z,8.34
2018-04-28T04:11:02.530Z,8.39
2018-04-28T04:12:12.743Z,8.4
2018-04-28T04:13:22.609Z,8.45
2018-04-28T04:14:32.740Z,8.52
2018-04-28T04:15:42.902Z,8.48
2018-04-28T04:16:53.124Z,8.52
2018-04-28T04:18:03.247Z,8.52
2018-04-28T04:19:13.482Z,8.61
2018-04-28T04:20:23.605Z,8.52
2018-04-28T04:21:33.847Z,8.64
2018-04-28T04:22:44.332Z,8.53
2018-04-28T04:23:54.476Z,8.55
2018-04-28T04:25:04.674Z,8.52
2018-04-28T04:26:14.819Z,8.5
2018-04-28T04:27:24.949Z,8.61
2018-04-28T04:28:34.840Z,8.52
2018-04-28T04:29:44.974Z,8.53
2018-04-28T04:30:55.108Z,8.55
2018-04-28T04:32:05.395Z,8.52
2018-04-28T04:33:15.583Z,8.58
2018-04-28T04:34:25.745Z,8.58
2018-04-28T04:35:35.876Z,8.6
2018-04-28T04:36:46.012Z,8.5
2018-04-28T04:37:56.127Z,8.5
2018-04-28T04:39:06.321Z,8.5
2018-04-28T04:40:16.493Z,8.57
2018-04-28T04:41:26.721Z,8.66
2018-04-28T04:42:36.856Z,8.6
2018-04-28T04:43:47.007Z,8.7
2018-04-28T04:44:57.141Z,8.63
2018-04-28T04:46:07.324Z,8.63
2018-04-28T04:47:17.475Z,8.77
2018-04-28T04:48:27.624Z,8.79
2018-04-28T04:49:37.752Z,8.7
2018-04-28T04:50:47.883Z,8.84
2018-04-28T04:51:58.047Z,8.75
2018-04-28T04:53:08.167Z,8.8
2018-04-28T04:54:18.328Z,8.82
2018-04-28T04:55:28.234Z,8.89
2018-04-28T04:56:38.442Z,8.83
2018-04-28T04:57:48.564Z,8.8
2018-04-28T04:58:58.687Z,8.71
2018-04-28T05:00:08.829Z,8.79
2018-04-28T05:01:18.973Z,8.74
2018-04-28T05:02:29.217Z,8.79
2018-04-28T05:03:39.424Z,8.77
2018-04-28T05:04:49.560Z,8.77
2018-04-28T05:05:59.761Z,8.9
2018-04-28T05:07:09.966Z,8.93
2018-04-28T05:08:20.085Z,8.97
2018-04-28T05:09:30.275Z,9.01
2018-04-28T05:10:40.431Z,8.95
2018-04-28T05:11:50.557Z,8.92
2018-04-28T05:13:00.725Z,8.8
2018-04-28T05:14:10.902Z,8.84
2018-04-28T05:15:21.199Z,8.79
2018-04-28T05:16:31.362Z,8.71
2018-04-28T05:17:41.229Z,8.71
2018-04-28T05:18:51.350Z,8.67
2018-04-28T05:20:01.557Z,8.67
2018-04-28T05:21:11.833Z,8.66
2018-04-28T05:22:22.038Z,8.61
2018-04-28T05:23:32.168Z,8.66
2018-04-28T05:24:42.034Z,8.58
2018-04-28T05:25:52.189Z,8.61
2018-04-28T05:27:02.527Z,8.61
2018-04-28T05:28:12.673Z,8.71
2018-04-28T05:29:22.801Z,8.71
2018-04-28T05:30:33.041Z,8.67
2018-04-28T05:31:43.318Z,8.74
2018-04-28T05:32:53.068Z,8.77
2018-04-28T05:34:03.195Z,8.95
2018-04-28T05:35:13.124Z,9.01
2018-04-28T05:36:23.393Z,9
2018-04-28T05:37:33.529Z,9.12
2018-04-28T05:38:43.688Z,9.11
2018-04-28T05:39:53.900Z,9.11
2018-04-28T05:41:04.135Z,9.12
2018-04-28T05:42:14.299Z,9.19
2018-04-28T05:43:24.553Z,9.12
2018-04-28T05:44:34.707Z,9.17
2018-04-28T05:45:44.851Z,9.15
2018-04-28T05:46:54.982Z,9.25
2018-04-28T05:48:04.843Z,9.27
2018-04-28T05:49:15.075Z,9.25
2018-04-28T05:50:24.961Z,9.23
2018-04-28T05:51:35.149Z,9.27
2018-04-28T05:52:45.363Z,9.33
2018-04-28T05:53:55.596Z,9.41
2018-04-28T05:55:05.745Z,9.38
2018-04-28T05:56:15.978Z,9.34
2018-04-28T05:57:25.877Z,9.53
2018-04-28T05:58:36.023Z,9.63
2018-04-28T05:59:46.178Z,9.66
2018-04-28T06:00:56.321Z,9.77
2018-04-28T06:02:06.486Z,9.7
2018-04-28T06:03:16.851Z,9.73
2018-04-28T06:04:27.255Z,9.77
2018-04-28T06:05:37.395Z,9.8
2018-04-28T06:06:47.565Z,9.88
2018-04-28T06:07:57.716Z,9.96
2018-04-28T06:09:07.956Z,10
2018-04-28T06:10:17.849Z,10.11
2018-04-28T06:11:27.988Z,10.17
2018-04-28T06:12:38.915Z,10.3
2018-04-28T06:13:49.075Z,10.27
2018-04-28T06:14:59.225Z,10.39
2018-04-28T06:16:09.413Z,10.36
2018-04-28T06:17:19.554Z,10.34
2018-04-28T06:18:29.732Z,10.47
2018-04-28T06:19:40.093Z,10.51
2018-04-28T06:20:50.349Z,10.54
2018-04-28T06:22:00.488Z,10.55
2018-04-28T06:23:11.585Z,10.55
2018-04-28T06:24:21.409Z,10.57
2018-04-28T06:25:31.282Z,10.57
2018-04-28T06:26:41.414Z,10.5
2018-04-28T06:27:51.543Z,10.59
2018-04-28T06:29:01.747Z,10.65
2018-04-28T06:30:11.885Z,10.61
2018-04-28T06:31:22.159Z,10.72
2018-04-28T06:32:32.339Z,10.72
2018-04-28T06:33:42.496Z,10.7
2018-04-28T06:34:52.624Z,10.72
2018-04-28T06:36:02.762Z,10.77
2018-04-28T06:37:12.936Z,10.84
2018-04-28T06:38:23.105Z,10.87
2018-04-28T06:39:33.018Z,11.02
2018-04-28T06:40:42.909Z,11.08
2018-04-28T06:41:53.097Z,11.09
2018-04-28T06:43:03.290Z,11.21
2018-04-28T06:44:13.496Z,11.17
2018-04-28T06:45:23.619Z,11.28
2018-04-28T06:46:33.748Z,11.38
2018-04-28T06:47:43.902Z,11.48
2018-04-28T06:48:53.668Z,11.4
2018-04-28T06:50:03.799Z,11.42
2018-04-28T06:51:14.240Z,11.45
2018-04-28T06:52:24.396Z,11.61
2018-04-28T06:53:34.548Z,11.68
2018-04-28T06:54:44.693Z,11.74
2018-04-28T06:55:54.845Z,11.89
2018-04-28T06:57:05.063Z,11.84
2018-04-28T06:58:15.255Z,12.02
2018-04-28T06:59:25.539Z,12.02
2018-04-28T07:00:35.347Z,12.07
2018-04-28T07:01:45.212Z,12.23
2018-04-28T07:02:55.355Z,12.15
2018-04-28T07:04:05.515Z,12.34
2018-04-28T07:05:15.644Z,12.41
2018-04-28T07:06:25.588Z,12.38
2018-04-28T07:07:35.779Z,12.52
2018-04-28T07:08:45.285Z,12.55
2018-04-28T07:09:55.451Z,12.63
2018-04-28T07:11:05.597Z,12.71
2018-04-28T07:12:15.732Z,12.82
2018-04-28T07:13:25.896Z,12.77
2018-04-28T07:14:36.036Z,13
2018-04-28T07:15:46.234Z,12.97
2018-04-28T07:16:57.462Z,13.03
2018-04-28T07:18:07.661Z,13.15
2018-04-28T07:19:17.864Z,13.23
2018-04-28T07:20:28.082Z,13.31
2018-04-28T07:21:38.296Z,13.41
2018-04-28T07:22:48.441Z,13.54
2018-04-28T07:23:58.605Z,13.66
2018-04-28T07:25:08.473Z,13.59
2018-04-28T07:26:18.372Z,13.63
2018-04-28T07:27:28.261Z,13.7
2018-04-28T07:28:38.392Z,13.81
2018-04-28T07:29:48.541Z,13.82
2018-04-28T07:30:58.676Z,13.94
2018-04-28T07:32:09.938Z,13.99
2018-04-28T07:33:20.109Z,14.03
2018-04-28T07:34:30.299Z,14.1
2018-04-28T07:35:40.475Z,14.07
2018-04-28T07:36:50.695Z,14.13
2018-04-28T07:38:01.829Z,14.29
2018-04-28T07:39:12.078Z,14.37
2018-04-28T07:40:22.268Z,14.43
2018-04-28T07:41:32.494Z,14.51
2018-04-28T07:42:42.725Z,14.54
2018-04-28T07:43:52.879Z,14.66
2018-04-28T07:45:03.071Z,14.66
2018-04-28T07:46:13.228Z,14.62
2018-04-28T07:47:23.381Z,14.72
2018-04-28T07:48:33.632Z,14.84
2018-04-28T07:49:43.795Z,14.93
2018-04-28T07:50:53.981Z,14.95
2018-04-28T07:52:04.217Z,14.95
2018-04-28T07:53:13.746Z,15.02
2018-04-28T07:54:23.999Z,15.08
2018-04-28T07:55:34.246Z,15.11
2018-04-28T07:56:44.534Z,15.2
2018-04-28T07:57:54.694Z,15.24
2018-04-28T07:59:04.603Z,15.29
2018-04-28T08:00:14.872Z,15.42
2018-04-28T08:01:25.152Z,15.57
2018-04-28T08:02:35.234Z,15.64
2018-04-28T08:03:45.413Z,15.79
2018-04-28T08:04:55.627Z,15.95
2018-04-28T08:06:05.916Z,16.04
2018-04-28T08:07:16.057Z,16.11
2018-04-28T08:08:26.243Z,16.16
2018-04-28T08:09:36.425Z,16.27
2018-04-28T08:10:46.597Z,16.36
2018-04-28T08:11:56.774Z,16.54
2018-04-28T08:13:06.917Z,16.56
2018-04-28T08:14:16.964Z,16.57
2018-04-28T08:15:27.125Z,16.79
2018-04-28T08:16:37.014Z,16.9
2018-04-28T08:17:47.176Z,17.11
2018-04-28T08:18:57.334Z,17.19
2018-04-28T08:20:07.528Z,17.45
2018-04-28T08:21:18.401Z,18.12
2018-04-28T08:22:28.543Z,18.87
2018-04-28T08:23:38.700Z,19.53
2018-04-28T08:24:48.586Z,20.03
2018-04-28T08:25:58.741Z,20.56
2018-04-28T08:27:08.900Z,20.97
2018-04-28T08:28:19.281Z,21.22
2018-04-28T08:29:29.457Z,21.53
2018-04-28T08:30:39.442Z,21.9
2018-04-28T08:31:49.442Z,22.2
2018-04-28T08:32:59.743Z,22.39
2018-04-28T08:34:10.085Z,22.45
2018-04-28T08:35:19.884Z,22.58
2018-04-28T08:36:30.066Z,22.64
2018-04-28T08:37:40.358Z,22.68
2018-04-28T08:38:50.535Z,22.85
2018-04-28T08:40:00.795Z,22.98
2018-04-28T08:41:12.781Z,23.18
2018-04-28T08:42:24.434Z,23.46
2018-04-28T08:43:35.272Z,23.76
2018-04-28T08:44:46.176Z,24.25
2018-04-28T08:45:57.488Z,24.66
2018-04-28T08:47:08.200Z,24.97
2018-04-28T08:48:18.413Z,25.05
2018-04-28T08:49:28.619Z,25.29
2018-04-28T08:50:38.785Z,25.31
2018-04-28T08:51:48.952Z,25.4
2018-04-28T08:52:59.133Z,25.44
2018-04-28T08:54:09.288Z,25.49
2018-04-28T08:55:19.485Z,25.69
2018-04-28T08:56:29.653Z,25.92
2018-04-28T08:57:39.852Z,26.02
2018-04-28T08:58:50.044Z,26.14
2018-04-28T09:00:00.323Z,26.29
2018-04-28T09:01:10.549Z,26.51
2018-04-28T09:02:20.435Z,26.71
2018-04-28T09:03:30.333Z,27.03
2018-04-28T09:04:40.560Z,27.12
2018-04-28T09:05:50.705Z,27.26
2018-04-28T09:07:00.932Z,27.26
2018-04-28T09:08:11.140Z,27.27
2018-04-28T09:09:21.282Z,27.37
2018-04-28T09:10:31.592Z,27.45
2018-04-28T09:11:42.797Z,27.33
2018-04-28T09:12:53.472Z,27.26
2018-04-28T09:14:03.683Z,27.33
2018-04-28T09:15:13.963Z,27.37
2018-04-28T09:16:24.169Z,27.23
2018-04-28T09:17:33.952Z,27.26
2018-04-28T09:18:44.126Z,27.34
2018-04-28T09:19:54.133Z,27.31
2018-04-28T09:21:04.385Z,27.42
2018-04-28T09:22:14.556Z,27.24
2018-04-28T09:23:24.810Z,27.31
2018-04-28T09:24:34.977Z,27.11
2018-04-28T09:25:45.136Z,26.96
2018-04-28T09:26:55.320Z,26.96
2018-04-28T09:28:05.397Z,26.99
2018-04-28T09:29:15.583Z,26.96
2018-04-28T09:30:25.739Z,26.9
2018-04-28T09:31:35.666Z,27.07
2018-04-28T09:32:45.579Z,27.24
2018-04-28T09:33:55.775Z,27.24
2018-04-28T09:35:06.012Z,27.27
2018-04-28T09:36:17.433Z,27.01
2018-04-28T09:40:30.861Z,27.17
2018-04-28T09:41:43.190Z,27.24
2018-04-28T09:42:53.373Z,27.27
2018-04-28T09:44:03.532Z,27.24
2018-04-28T09:45:14.693Z,27.26
2018-04-28T09:46:24.934Z,27.46
2018-04-28T09:47:35.295Z,27.49
2018-04-28T09:48:45.502Z,27.42
2018-04-28T09:49:55.688Z,27.45
2018-04-28T09:51:06.964Z,27.53
2018-04-28T09:52:17.389Z,27.63
2018-04-28T09:53:27.749Z,27.68
2018-04-28T09:54:37.984Z,27.79
2018-04-28T09:55:48.199Z,27.86
2018-04-28T09:56:58.474Z,27.9
2018-04-28T09:58:08.656Z,27.83
2018-04-28T09:59:18.830Z,27.58
2018-04-28T10:00:29.063Z,27.08
2018-04-28T10:01:39.317Z,26.68
2018-04-28T10:02:49.650Z,26.18
2018-04-28T10:03:59.875Z,25.92
2018-04-28T10:05:09.872Z,25.64
2018-04-28T10:06:20.172Z,25.56
2018-04-28T10:07:29.741Z,25.18
2018-04-28T10:08:39.574Z,25.05
2018-04-28T10:09:49.850Z,24.97
2018-04-28T10:11:00.100Z,24.48
2018-04-28T10:12:10.030Z,23.79
2018-04-28T10:13:20.185Z,23.21
2018-04-28T10:14:30.388Z,22.67
2018-04-28T10:15:41.525Z,22.39
2018-04-28T10:16:51.437Z,22.3
2018-04-28T10:18:01.651Z,22.39
2018-04-28T10:19:11.843Z,22.68
2018-04-28T10:20:21.897Z,22.79
2018-04-28T10:21:32.612Z,22.68
2018-04-28T10:22:42.933Z,22.61
2018-04-28T10:23:54.069Z,22.76
2018-04-28T10:25:04.303Z,23.17
2018-04-28T10:26:14.105Z,23.33
2018-04-28T10:27:24.348Z,23.76
2018-04-28T10:28:34.506Z,24.13
2018-04-28T10:29:44.727Z,24.5
2018-04-28T10:30:55.101Z,24.78
2018-04-28T10:32:06.514Z,25.1
2018-04-28T10:33:16.809Z,25.17
2018-04-28T10:34:26.983Z,25.17
2018-04-28T10:35:37.260Z,25.05
2018-04-28T10:36:47.292Z,24.95
2018-04-28T10:37:57.462Z,24.88
2018-04-28T10:39:07.715Z,24.73
2018-04-28T10:40:18.044Z,24.53
2018-04-28T10:41:28.311Z,24.39
2018-04-28T10:42:38.365Z,24.24
2018-04-28T10:43:48.806Z,24.2
2018-04-28T10:44:58.967Z,24.06
2018-04-28T10:46:08.873Z,24.12
2018-04-28T10:47:19.041Z,24.16
2018-04-28T10:48:29.228Z,24.24
2018-04-28T10:49:39.402Z,24.22
2018-04-28T10:50:49.663Z,24.34
2018-04-28T10:51:59.330Z,24.62
2018-04-28T10:53:09.505Z,24.84
2018-04-28T10:54:19.694Z,24.81
2018-04-28T10:55:29.977Z,24.91
2018-04-28T10:56:42.040Z,24.92
2018-04-28T10:57:53.283Z,24.91
2018-04-28T10:59:03.496Z,24.75
2018-04-28T11:00:13.707Z,24.75
2018-04-28T11:01:23.941Z,24.66
2018-04-28T11:02:34.174Z,24.19
2018-04-28T11:03:44.197Z,24.13
2018-04-28T11:04:54.577Z,23.77
2018-04-28T11:06:04.955Z,23.65
2018-04-28T11:07:15.193Z,23.6
2018-04-28T11:08:25.359Z,23.48
2018-04-28T11:09:35.527Z,23.64
2018-04-28T11:10:45.726Z,23.76
2018-04-28T11:11:55.963Z,23.77
2018-04-28T11:13:06.231Z,24.05
2018-04-28T11:14:16.421Z,24.34
2018-04-28T11:15:26.658Z,24.55
2018-04-28T11:16:36.884Z,24.76
2018-04-28T11:17:47.103Z,25.12
2018-04-28T11:18:57.037Z,25.27
2018-04-28T11:20:07.052Z,25.25
2018-04-28T11:21:17.325Z,24.88
2018-04-28T11:22:27.549Z,24.65
2018-04-28T11:23:37.872Z,24.44
2018-04-28T11:24:48.076Z,24.07
2018-04-28T11:25:58.508Z,23.54
2018-04-28T11:27:09.649Z,23.23
2018-04-28T11:28:19.878Z,23.09
2018-04-28T11:29:30.099Z,23.23
2018-04-28T11:30:40.279Z,23.46
2018-04-28T11:31:50.636Z,23.72
2018-04-28T11:33:00.840Z,23.97
2018-04-28T11:34:11.131Z,24.15
2018-04-28T11:35:21.054Z,24.34
2018-04-28T11:36:31.322Z,24.53
2018-04-28T11:37:41.248Z,24.57
2018-04-28T11:38:51.616Z,24.58
2018-04-28T11:40:01.859Z,24.62
2018-04-28T11:41:12.149Z,24.62
2018-04-28T11:42:22.344Z,24.69
2018-04-28T11:43:32.632Z,24.73
2018-04-28T11:44:43.264Z,24.76
2018-04-28T11:45:53.476Z,24.72
2018-04-28T11:47:03.676Z,24.32
2018-04-28T11:48:13.486Z,24.1
2018-04-28T11:49:23.686Z,23.88
2018-04-28T11:50:33.914Z,23.83
2018-04-28T11:51:43.940Z,23.91
2018-04-28T11:52:54.356Z,23.92
2018-04-28T11:54:04.559Z,23.98
2018-04-28T11:55:14.865Z,24.01
2018-04-28T11:56:24.951Z,23.87
2018-04-28T11:57:35.162Z,23.64
2018-04-28T11:58:45.429Z,23.4
2018-04-28T11:59:55.745Z,23.32
2018-04-28T12:01:05.991Z,23.21
2018-04-28T12:02:16.076Z,23.17
2018-04-28T12:03:26.366Z,22.93
2018-04-28T12:04:36.629Z,22.89
2018-04-28T12:05:47.051Z,22.8
2018-04-28T12:06:57.501Z,22.7
2018-04-28T12:08:07.715Z,22.89
2018-04-28T12:09:17.896Z,23.05
2018-04-28T12:10:28.133Z,23.13
2018-04-28T12:11:38.389Z,23.14
2018-04-28T12:12:48.581Z,23.16
2018-04-28T12:13:58.761Z,23.36
2018-04-28T12:15:08.066Z,23.46
2018-04-28T12:16:18.337Z,23.63
2018-04-28T12:17:28.293Z,23.73
2018-04-28T12:18:38.729Z,23.77
2018-04-28T12:19:48.940Z,23.75
2018-04-28T12:20:59.292Z,23.87
2018-04-28T12:22:09.599Z,23.77
2018-04-28T12:23:19.838Z,23.82
2018-04-28T12:24:30.045Z,23.75
2018-04-28T12:25:40.278Z,23.85
2018-04-28T12:26:50.511Z,23.9
2018-04-28T12:28:00.727Z,24.01
2018-04-28T12:29:10.961Z,24.01
2018-04-28T12:30:21.173Z,24.06
2018-04-28T12:31:31.126Z,24.02
2018-04-28T12:32:40.989Z,23.97
2018-04-28T12:33:51.217Z,23.75
2018-04-28T12:35:01.505Z,23.75
2018-04-28T12:36:11.695Z,23.58
2018-04-28T12:37:21.912Z,23.32
2018-04-28T12:38:31.887Z,23.24
2018-04-28T12:39:42.249Z,23.08
2018-04-28T12:40:52.447Z,23.17
2018-04-28T12:42:02.672Z,23.17
2018-04-28T12:43:12.606Z,23.32
2018-04-28T12:44:22.803Z,23.24
2018-04-28T12:45:32.961Z,23.17
2018-04-28T12:46:43.152Z,23.05
2018-04-28T12:47:54.138Z,22.71
2018-04-28T12:49:04.541Z,22.6
2018-04-28T12:50:14.707Z,22.38
2018-04-28T12:51:24.911Z,22.11
2018-04-28T12:52:35.131Z,22.13
2018-04-28T12:53:45.389Z,22.18
2018-04-28T12:54:55.584Z,22.24
2018-04-28T12:56:05.788Z,22.43
2018-04-28T12:57:15.728Z,22.53
2018-04-28T12:58:25.758Z,22.57
2018-04-28T12:59:36.001Z,22.57
2018-04-28T13:00:46.208Z,22.35
2018-04-28T13:01:56.413Z,22.35
2018-04-28T13:03:06.409Z,22.3
2018-04-28T13:04:16.621Z,22.43
2018-04-28T13:05:26.831Z,22.49
2018-04-28T13:06:37.008Z,22.42
2018-04-28T13:07:46.910Z,22.33
2018-04-28T13:08:57.217Z,22.18
2018-04-28T13:10:06.915Z,22.02
2018-04-28T13:11:17.200Z,21.96
2018-04-28T13:12:26.859Z,21.83
2018-04-28T13:13:37.105Z,21.65
2018-04-28T13:14:47.018Z,21.6
2018-04-28T13:15:56.905Z,21.46
2018-04-28T13:17:07.142Z,21.45
2018-04-28T13:18:17.296Z,21.31
2018-04-28T13:19:27.290Z,21.35
2018-04-28T13:20:37.487Z,21.38
2018-04-28T13:21:47.672Z,21.5
2018-04-28T13:22:57.938Z,21.61
2018-04-28T13:24:08.440Z,21.65
2018-04-28T13:25:18.610Z,21.75
2018-04-28T13:26:28.764Z,21.75
2018-04-28T13:27:38.978Z,21.73
2018-04-28T13:28:49.163Z,21.86
2018-04-28T13:29:59.357Z,21.73
2018-04-28T13:31:09.552Z,21.58
2018-04-28T13:32:19.748Z,21.64
2018-04-28T13:33:29.936Z,21.69
2018-04-28T13:34:40.109Z,21.75
2018-04-28T13:35:49.918Z,21.83
2018-04-28T13:37:00.179Z,21.72
2018-04-28T13:38:10.419Z,21.58
2018-04-28T13:39:20.590Z,21.49
2018-04-28T13:40:30.929Z,21.58
2018-04-28T13:41:40.768Z,21.57
2018-04-28T13:42:50.950Z,21.54
2018-04-28T13:44:01.148Z,21.37
2018-04-28T13:45:11.351Z,21.15
2018-04-28T13:46:21.611Z,21.04
2018-04-28T13:47:31.791Z,20.79
2018-04-28T13:48:42.000Z,20.72
2018-04-28T13:49:52.174Z,20.68
2018-04-28T13:51:02.358Z,20.63
2018-04-28T13:52:12.529Z,20.6
2018-04-28T13:53:22.799Z,20.6
2018-04-28T13:54:33.102Z,20.6
2018-04-28T13:55:43.252Z,20.46
2018-04-28T13:56:53.416Z,20.27
2018-04-28T13:58:03.635Z,20.21
2018-04-28T13:59:13.868Z,20.21
2018-04-28T14:00:24.035Z,20.08
2018-04-28T14:01:33.963Z,20.11
2018-04-28T14:02:44.118Z,20.21
2018-04-28T14:03:54.336Z,20.19
2018-04-28T14:05:04.769Z,20.23
2018-04-28T14:06:14.950Z,20.27
2018-04-28T14:07:25.126Z,20.36
2018-04-28T14:08:35.044Z,20.48
2018-04-28T14:09:45.497Z,20.61
2018-04-28T14:10:55.712Z,20.73
2018-04-28T14:12:05.927Z,20.85
2018-04-28T14:13:16.142Z,20.88
2018-04-28T14:14:26.372Z,20.86
2018-04-28T14:15:36.258Z,20.82
2018-04-28T14:16:46.431Z,20.75
2018-04-28T14:17:56.625Z,20.79
2018-04-28T14:19:06.829Z,20.78
2018-04-28T14:20:17.011Z,20.75
2018-04-28T14:21:27.204Z,20.82
2018-04-28T14:22:38.462Z,20.85
2018-04-28T14:23:48.653Z,20.85
2018-04-28T14:24:58.621Z,20.83
2018-04-28T14:26:08.796Z,20.83
2018-04-28T14:27:18.961Z,20.76
2018-04-28T14:28:29.116Z,20.88
2018-04-28T14:29:39.155Z,20.82
2018-04-28T14:30:49.375Z,20.81
2018-04-28T14:31:59.642Z,20.86
2018-04-28T14:33:09.895Z,20.76
2018-04-28T14:34:19.474Z,20.75
2018-04-28T14:35:29.712Z,20.64
2018-04-28T14:36:39.963Z,20.6
2018-04-28T14:37:50.140Z,20.54
2018-04-28T14:39:01.363Z,20.57
2018-04-28T14:40:11.600Z,20.54
2018-04-28T14:41:21.867Z,20.56
2018-04-28T14:42:32.071Z,20.56
2018-04-28T14:43:41.980Z,20.51
2018-04-28T14:44:52.148Z,20.48
2018-04-28T14:46:02.048Z,20.35
2018-04-28T14:47:12.314Z,20.38
2018-04-28T14:48:22.470Z,20.34
2018-04-28T14:49:32.640Z,20.28
2018-04-28T14:50:42.788Z,20.34
2018-04-28T14:51:52.961Z,20.31
2018-04-28T14:53:03.115Z,20.34
2018-04-28T14:54:13.279Z,20.35
2018-04-28T14:55:23.150Z,20.17
2018-04-28T14:56:33.339Z,20.2
2018-04-28T14:57:43.534Z,20.23
2018-04-28T14:58:53.706Z,20.28
2018-04-28T15:00:03.883Z,20.31
2018-04-28T15:01:14.205Z,20.28
2018-04-28T15:02:24.610Z,20.17
2018-04-28T15:03:34.767Z,20.14
2018-04-28T15:04:45.918Z,20.05
2018-04-28T15:05:55.815Z,20.07
2018-04-28T15:07:05.765Z,20.01
2018-04-28T15:08:15.963Z,19.98
2018-04-28T15:09:26.122Z,19.98
2018-04-28T15:10:36.060Z,20
2018-04-28T15:11:46.220Z,19.97
2018-04-28T15:12:56.489Z,19.97
2018-04-28T15:14:06.691Z,19.92
2018-04-28T15:15:16.906Z,19.92
2018-04-28T15:16:27.072Z,19.85
2018-04-28T15:17:37.440Z,19.82
2018-04-28T15:18:47.589Z,19.83
2018-04-28T15:19:57.818Z,19.85
2018-04-28T15:21:07.633Z,19.85
2018-04-28T15:22:17.781Z,19.73
2018-04-28T15:23:27.938Z,19.67